sensor_id;sensor_type;location;lat;lon;timestamp;P1;durP1;ratioP1;P2;durP2;ratioP2
13866;SDS011;7003;46.982;15.248;2024-02-15T00:00:05;2.03;;;1.83;;
13866;SDS011;7003;46.982;15.248;2024-02-15T00:02:33;1.90;;;1.10;;
13866;SDS011;7003;46.982;15.248;2024-02-15T00:05:01;4.10;;;1.97;;
13866;SDS011;7003;46.982;15.248;2024-02-15T00:07:29;2.97;;;1.63;;
13866;SDS011;7003;46.982;15.248;2024-02-15T00:09:59;2.87;;;1.93;;
13866;SDS011;7003;46.982;15.248;2024-02-15T00:12:27;2.33;;;1.70;;
13866;SDS011;7003;46.982;15.248;2024-02-15T00:14:55;3.77;;;2.57;;
13866;SDS011;7003;46.982;15.248;2024-02-15T00:17:23;4.03;;;2.47;;
13866;SDS011;7003;46.982;15.248;2024-02-15T00:19:51;9.00;;;3.63;;
13866;SDS011;7003;46.982;15.248;2024-02-15T00:22:18;2.53;;;1.83;;
13866;SDS011;7003;46.982;15.248;2024-02-15T00:24:48;3.60;;;2.80;;
13866;SDS011;7003;46.982;15.248;2024-02-15T00:27:17;2.53;;;2.33;;
13866;SDS011;7003;46.982;15.248;2024-02-15T00:29:46;3.13;;;2.00;;
13866;SDS011;7003;46.982;15.248;2024-02-15T00:32:13;2.40;;;2.13;;
13866;SDS011;7003;46.982;15.248;2024-02-15T00:34:40;3.60;;;2.53;;
13866;SDS011;7003;46.982;15.248;2024-02-15T00:37:07;5.80;;;3.73;;
13866;SDS011;7003;46.982;15.248;2024-02-15T00:39:36;2.97;;;2.50;;
13866;SDS011;7003;46.982;15.248;2024-02-15T00:42:05;4.67;;;2.37;;
13866;SDS011;7003;46.982;15.248;2024-02-15T00:44:35;4.07;;;3.03;;
13866;SDS011;7003;46.982;15.248;2024-02-15T00:47:03;4.40;;;3.50;;
13866;SDS011;7003;46.982;15.248;2024-02-15T00:49:30;2.83;;;2.37;;
13866;SDS011;7003;46.982;15.248;2024-02-15T00:51:58;2.67;;;2.23;;
13866;SDS011;7003;46.982;15.248;2024-02-15T00:54:29;4.73;;;2.50;;
13866;SDS011;7003;46.982;15.248;2024-02-15T00:56:56;1.30;;;1.17;;
13866;SDS011;7003;46.982;15.248;2024-02-15T00:59:23;1.80;;;1.07;;
13866;SDS011;7003;46.982;15.248;2024-02-15T01:01:52;5.47;;;3.20;;
13866;SDS011;7003;46.982;15.248;2024-02-15T01:04:22;2.97;;;2.70;;
13866;SDS011;7003;46.982;15.248;2024-02-15T01:06:50;4.43;;;2.40;;
13866;SDS011;7003;46.982;15.248;2024-02-15T01:09:19;1.23;;;1.13;;
13866;SDS011;7003;46.982;15.248;2024-02-15T01:11:46;1.77;;;0.73;;
13866;SDS011;7003;46.982;15.248;2024-02-15T01:14:13;4.63;;;2.20;;
13866;SDS011;7003;46.982;15.248;2024-02-15T01:16:40;2.67;;;1.20;;
13866;SDS011;7003;46.982;15.248;2024-02-15T01:19:12;1.17;;;1.17;;
13866;SDS011;7003;46.982;15.248;2024-02-15T01:21:40;3.37;;;1.57;;
13866;SDS011;7003;46.982;15.248;2024-02-15T01:24:10;3.27;;;2.03;;
13866;SDS011;7003;46.982;15.248;2024-02-15T01:26:37;1.30;;;1.20;;
13866;SDS011;7003;46.982;15.248;2024-02-15T01:29:05;1.23;;;1.13;;
13866;SDS011;7003;46.982;15.248;2024-02-15T01:31:39;1.17;;;1.17;;
13866;SDS011;7003;46.982;15.248;2024-02-15T01:34:09;1.60;;;1.50;;
13866;SDS011;7003;46.982;15.248;2024-02-15T01:36:39;1.33;;;1.30;;
13866;SDS011;7003;46.982;15.248;2024-02-15T01:39:10;1.93;;;1.50;;
13866;SDS011;7003;46.982;15.248;2024-02-15T01:41:37;2.67;;;1.90;;
13866;SDS011;7003;46.982;15.248;2024-02-15T01:44:04;3.47;;;1.10;;
13866;SDS011;7003;46.982;15.248;2024-02-15T01:46:35;2.07;;;1.70;;
13866;SDS011;7003;46.982;15.248;2024-02-15T01:49:05;2.23;;;2.03;;
13866;SDS011;7003;46.982;15.248;2024-02-15T01:51:33;1.43;;;1.23;;
13866;SDS011;7003;46.982;15.248;2024-02-15T01:54:06;1.73;;;1.40;;
13866;SDS011;7003;46.982;15.248;2024-02-15T01:56:37;1.40;;;1.03;;
13866;SDS011;7003;46.982;15.248;2024-02-15T01:59:04;1.10;;;1.10;;
13866;SDS011;7003;46.982;15.248;2024-02-15T02:01:32;4.80;;;1.30;;
13866;SDS011;7003;46.982;15.248;2024-02-15T02:04:00;1.57;;;0.60;;
13866;SDS011;7003;46.982;15.248;2024-02-15T02:06:27;0.40;;;0.40;;
13866;SDS011;7003;46.982;15.248;2024-02-15T02:08:55;0.43;;;0.43;;
13866;SDS011;7003;46.982;15.248;2024-02-15T02:11:26;1.30;;;1.20;;
13866;SDS011;7003;46.982;15.248;2024-02-15T02:13:54;1.47;;;1.37;;
13866;SDS011;7003;46.982;15.248;2024-02-15T02:16:25;1.93;;;0.70;;
13866;SDS011;7003;46.982;15.248;2024-02-15T02:18:54;0.37;;;0.37;;
13866;SDS011;7003;46.982;15.248;2024-02-15T02:21:22;0.50;;;0.50;;
13866;SDS011;7003;46.982;15.248;2024-02-15T02:23:52;0.77;;;0.77;;
13866;SDS011;7003;46.982;15.248;2024-02-15T02:26:26;0.87;;;0.60;;
13866;SDS011;7003;46.982;15.248;2024-02-15T02:28:56;0.33;;;0.33;;
13866;SDS011;7003;46.982;15.248;2024-02-15T02:31:25;0.63;;;0.57;;
13866;SDS011;7003;46.982;15.248;2024-02-15T02:33:54;0.70;;;0.70;;
13866;SDS011;7003;46.982;15.248;2024-02-15T02:36:27;0.90;;;0.60;;
13866;SDS011;7003;46.982;15.248;2024-02-15T02:38:57;1.70;;;1.03;;
13866;SDS011;7003;46.982;15.248;2024-02-15T02:41:28;0.57;;;0.57;;
13866;SDS011;7003;46.982;15.248;2024-02-15T02:43:58;1.03;;;0.70;;
13866;SDS011;7003;46.982;15.248;2024-02-15T02:46:27;0.73;;;0.63;;
13866;SDS011;7003;46.982;15.248;2024-02-15T02:48:57;3.83;;;2.67;;
13866;SDS011;7003;46.982;15.248;2024-02-15T02:51:24;1.13;;;1.03;;
13866;SDS011;7003;46.982;15.248;2024-02-15T02:53:51;1.30;;;1.17;;
13866;SDS011;7003;46.982;15.248;2024-02-15T02:56:19;1.20;;;1.10;;
13866;SDS011;7003;46.982;15.248;2024-02-15T02:58:48;0.70;;;0.70;;
13866;SDS011;7003;46.982;15.248;2024-02-15T03:01:15;1.20;;;0.83;;
13866;SDS011;7003;46.982;15.248;2024-02-15T03:03:43;0.60;;;0.60;;
13866;SDS011;7003;46.982;15.248;2024-02-15T03:06:10;0.87;;;0.87;;
13866;SDS011;7003;46.982;15.248;2024-02-15T03:08:37;1.37;;;0.97;;
13866;SDS011;7003;46.982;15.248;2024-02-15T03:11:04;1.73;;;1.10;;
13866;SDS011;7003;46.982;15.248;2024-02-15T03:13:35;0.73;;;0.73;;
13866;SDS011;7003;46.982;15.248;2024-02-15T03:16:05;1.27;;;1.17;;
13866;SDS011;7003;46.982;15.248;2024-02-15T03:18:33;0.60;;;0.60;;
13866;SDS011;7003;46.982;15.248;2024-02-15T03:21:04;0.40;;;0.40;;
13866;SDS011;7003;46.982;15.248;2024-02-15T03:23:35;1.03;;;1.00;;
13866;SDS011;7003;46.982;15.248;2024-02-15T03:26:03;0.70;;;0.70;;
13866;SDS011;7003;46.982;15.248;2024-02-15T03:28:33;0.83;;;0.83;;
13866;SDS011;7003;46.982;15.248;2024-02-15T03:31:06;0.87;;;0.77;;
13866;SDS011;7003;46.982;15.248;2024-02-15T03:33:33;1.47;;;0.77;;
13866;SDS011;7003;46.982;15.248;2024-02-15T03:36:00;0.20;;;0.20;;
13866;SDS011;7003;46.982;15.248;2024-02-15T03:38:31;1.17;;;0.70;;
13866;SDS011;7003;46.982;15.248;2024-02-15T03:40:58;1.00;;;1.00;;
13866;SDS011;7003;46.982;15.248;2024-02-15T03:43:28;0.70;;;0.53;;
13866;SDS011;7003;46.982;15.248;2024-02-15T03:45:55;1.07;;;1.00;;
13866;SDS011;7003;46.982;15.248;2024-02-15T03:48:24;1.63;;;0.87;;
13866;SDS011;7003;46.982;15.248;2024-02-15T03:50:54;1.13;;;0.93;;
13866;SDS011;7003;46.982;15.248;2024-02-15T03:53:22;0.87;;;0.70;;
13866;SDS011;7003;46.982;15.248;2024-02-15T03:55:49;1.27;;;1.17;;
13866;SDS011;7003;46.982;15.248;2024-02-15T03:58:19;1.30;;;1.10;;
13866;SDS011;7003;46.982;15.248;2024-02-15T04:00:48;1.27;;;0.90;;
13866;SDS011;7003;46.982;15.248;2024-02-15T04:03:15;1.67;;;0.97;;
13866;SDS011;7003;46.982;15.248;2024-02-15T04:05:44;0.67;;;0.57;;
13866;SDS011;7003;46.982;15.248;2024-02-15T04:08:11;0.83;;;0.67;;
13866;SDS011;7003;46.982;15.248;2024-02-15T04:10:42;0.43;;;0.43;;
13866;SDS011;7003;46.982;15.248;2024-02-15T04:13:11;0.60;;;0.60;;
13866;SDS011;7003;46.982;15.248;2024-02-15T04:15:41;0.90;;;0.90;;
13866;SDS011;7003;46.982;15.248;2024-02-15T04:18:12;1.37;;;0.90;;
13866;SDS011;7003;46.982;15.248;2024-02-15T04:20:43;1.30;;;1.20;;
13866;SDS011;7003;46.982;15.248;2024-02-15T04:23:14;1.30;;;0.77;;
13866;SDS011;7003;46.982;15.248;2024-02-15T04:25:42;0.60;;;0.60;;
13866;SDS011;7003;46.982;15.248;2024-02-15T04:28:16;0.97;;;0.70;;
13866;SDS011;7003;46.982;15.248;2024-02-15T04:30:44;2.47;;;0.67;;
13866;SDS011;7003;46.982;15.248;2024-02-15T04:33:14;0.83;;;0.83;;
13866;SDS011;7003;46.982;15.248;2024-02-15T04:35:42;0.70;;;0.57;;
13866;SDS011;7003;46.982;15.248;2024-02-15T04:38:14;1.07;;;0.97;;
13866;SDS011;7003;46.982;15.248;2024-02-15T04:40:43;1.80;;;1.50;;
13866;SDS011;7003;46.982;15.248;2024-02-15T04:43:13;0.40;;;0.40;;
13866;SDS011;7003;46.982;15.248;2024-02-15T04:45:41;1.13;;;0.53;;
13866;SDS011;7003;46.982;15.248;2024-02-15T04:48:11;0.63;;;0.50;;
13866;SDS011;7003;46.982;15.248;2024-02-15T04:50:39;1.33;;;0.90;;
13866;SDS011;7003;46.982;15.248;2024-02-15T04:53:11;1.33;;;1.17;;
13866;SDS011;7003;46.982;15.248;2024-02-15T04:55:41;1.43;;;0.60;;
13866;SDS011;7003;46.982;15.248;2024-02-15T04:58:09;0.73;;;0.73;;
13866;SDS011;7003;46.982;15.248;2024-02-15T05:00:39;6.47;;;1.57;;
13866;SDS011;7003;46.982;15.248;2024-02-15T05:03:06;1.43;;;1.27;;
13866;SDS011;7003;46.982;15.248;2024-02-15T05:05:34;1.27;;;1.07;;
13866;SDS011;7003;46.982;15.248;2024-02-15T05:08:01;0.90;;;0.90;;
13866;SDS011;7003;46.982;15.248;2024-02-15T05:10:29;1.63;;;1.07;;
13866;SDS011;7003;46.982;15.248;2024-02-15T05:12:58;7.53;;;0.47;;
13866;SDS011;7003;46.982;15.248;2024-02-15T05:15:30;0.70;;;0.70;;
13866;SDS011;7003;46.982;15.248;2024-02-15T05:17:58;0.57;;;0.57;;
13866;SDS011;7003;46.982;15.248;2024-02-15T05:20:27;0.27;;;0.27;;
13866;SDS011;7003;46.982;15.248;2024-02-15T05:22:54;0.60;;;0.60;;
13866;SDS011;7003;46.982;15.248;2024-02-15T05:25:24;0.80;;;0.80;;
13866;SDS011;7003;46.982;15.248;2024-02-15T05:27:52;1.20;;;1.07;;
13866;SDS011;7003;46.982;15.248;2024-02-15T05:30:21;1.23;;;0.50;;
13866;SDS011;7003;46.982;15.248;2024-02-15T05:32:49;0.80;;;0.80;;
13866;SDS011;7003;46.982;15.248;2024-02-15T05:35:20;0.63;;;0.63;;
13866;SDS011;7003;46.982;15.248;2024-02-15T05:37:47;5.33;;;0.80;;
13866;SDS011;7003;46.982;15.248;2024-02-15T05:40:19;0.23;;;0.23;;
13866;SDS011;7003;46.982;15.248;2024-02-15T05:42:46;0.60;;;0.60;;
13866;SDS011;7003;46.982;15.248;2024-02-15T05:45:29;0.47;;;0.40;;
13866;SDS011;7003;46.982;15.248;2024-02-15T05:48:03;0.83;;;0.83;;
13866;SDS011;7003;46.982;15.248;2024-02-15T05:50:34;0.67;;;0.57;;
13866;SDS011;7003;46.982;15.248;2024-02-15T05:53:02;0.77;;;0.77;;
13866;SDS011;7003;46.982;15.248;2024-02-15T05:55:32;1.63;;;1.27;;
13866;SDS011;7003;46.982;15.248;2024-02-15T05:58:02;0.80;;;0.80;;
13866;SDS011;7003;46.982;15.248;2024-02-15T06:00:34;0.47;;;0.47;;
13866;SDS011;7003;46.982;15.248;2024-02-15T06:03:05;0.70;;;0.70;;
13866;SDS011;7003;46.982;15.248;2024-02-15T06:05:35;0.60;;;0.60;;
13866;SDS011;7003;46.982;15.248;2024-02-15T06:08:06;0.50;;;0.50;;
13866;SDS011;7003;46.982;15.248;2024-02-15T06:10:41;0.73;;;0.60;;
13866;SDS011;7003;46.982;15.248;2024-02-15T06:13:11;0.45;;;0.45;;
13866;SDS011;7003;46.982;15.248;2024-02-15T06:15:43;1.23;;;0.80;;
13866;SDS011;7003;46.982;15.248;2024-02-15T06:18:14;0.67;;;0.67;;
13866;SDS011;7003;46.982;15.248;2024-02-15T06:20:47;0.90;;;0.90;;
13866;SDS011;7003;46.982;15.248;2024-02-15T06:23:18;2.17;;;0.90;;
13866;SDS011;7003;46.982;15.248;2024-02-15T06:25:52;0.77;;;0.77;;
13866;SDS011;7003;46.982;15.248;2024-02-15T06:28:27;0.93;;;0.83;;
13866;SDS011;7003;46.982;15.248;2024-02-15T06:31:16;0.93;;;0.87;;
13866;SDS011;7003;46.982;15.248;2024-02-15T06:34:02;1.40;;;1.17;;
13866;SDS011;7003;46.982;15.248;2024-02-15T06:36:52;0.70;;;0.70;;
13866;SDS011;7003;46.982;15.248;2024-02-15T06:39:44;1.37;;;0.53;;
13866;SDS011;7003;46.982;15.248;2024-02-15T06:42:14;1.10;;;0.97;;
13866;SDS011;7003;46.982;15.248;2024-02-15T06:44:46;1.90;;;1.50;;
13866;SDS011;7003;46.982;15.248;2024-02-15T06:47:18;1.20;;;0.80;;
13866;SDS011;7003;46.982;15.248;2024-02-15T06:49:50;1.07;;;0.90;;
13866;SDS011;7003;46.982;15.248;2024-02-15T06:52:20;0.80;;;0.70;;
13866;SDS011;7003;46.982;15.248;2024-02-15T06:54:50;0.70;;;0.70;;
13866;SDS011;7003;46.982;15.248;2024-02-15T06:57:21;1.37;;;1.10;;
13866;SDS011;7003;46.982;15.248;2024-02-15T06:59:53;1.40;;;1.30;;
13866;SDS011;7003;46.982;15.248;2024-02-15T07:02:27;1.03;;;1.03;;
13866;SDS011;7003;46.982;15.248;2024-02-15T07:04:59;1.77;;;1.13;;
13866;SDS011;7003;46.982;15.248;2024-02-15T07:07:30;1.97;;;1.20;;
13866;SDS011;7003;46.982;15.248;2024-02-15T07:10:00;0.60;;;0.60;;
13866;SDS011;7003;46.982;15.248;2024-02-15T07:12:34;1.10;;;0.97;;
13866;SDS011;7003;46.982;15.248;2024-02-15T07:15:09;1.27;;;0.73;;
13866;SDS011;7003;46.982;15.248;2024-02-15T07:17:44;1.30;;;0.87;;
13866;SDS011;7003;46.982;15.248;2024-02-15T07:20:15;2.53;;;1.87;;
13866;SDS011;7003;46.982;15.248;2024-02-15T07:22:46;1.77;;;1.63;;
13866;SDS011;7003;46.982;15.248;2024-02-15T07:25:21;2.50;;;1.90;;
13866;SDS011;7003;46.982;15.248;2024-02-15T07:28:10;1.30;;;1.20;;
13866;SDS011;7003;46.982;15.248;2024-02-15T07:30:43;1.80;;;1.63;;
13866;SDS011;7003;46.982;15.248;2024-02-15T07:33:19;1.87;;;1.03;;
13866;SDS011;7003;46.982;15.248;2024-02-15T07:35:49;2.27;;;2.07;;
13866;SDS011;7003;46.982;15.248;2024-02-15T07:38:20;1.20;;;1.10;;
13866;SDS011;7003;46.982;15.248;2024-02-15T07:40:52;1.47;;;1.37;;
13866;SDS011;7003;46.982;15.248;2024-02-15T07:43:22;1.50;;;1.40;;
13866;SDS011;7003;46.982;15.248;2024-02-15T07:45:55;2.23;;;2.00;;
13866;SDS011;7003;46.982;15.248;2024-02-15T07:48:28;1.63;;;1.50;;
13866;SDS011;7003;46.982;15.248;2024-02-15T07:50:59;1.40;;;1.30;;
13866;SDS011;7003;46.982;15.248;2024-02-15T07:53:28;5.17;;;1.60;;
13866;SDS011;7003;46.982;15.248;2024-02-15T07:56:02;5.03;;;2.80;;
13866;SDS011;7003;46.982;15.248;2024-02-15T07:58:34;3.73;;;2.63;;
13866;SDS011;7003;46.982;15.248;2024-02-15T08:01:08;2.53;;;1.90;;
13866;SDS011;7003;46.982;15.248;2024-02-15T08:03:41;2.50;;;1.70;;
13866;SDS011;7003;46.982;15.248;2024-02-15T08:06:13;2.37;;;1.60;;
13866;SDS011;7003;46.982;15.248;2024-02-15T08:08:46;4.10;;;2.27;;
13866;SDS011;7003;46.982;15.248;2024-02-15T08:11:22;2.40;;;2.07;;
13866;SDS011;7003;46.982;15.248;2024-02-15T08:13:54;2.40;;;2.20;;
13866;SDS011;7003;46.982;15.248;2024-02-15T08:16:26;2.53;;;2.33;;
13866;SDS011;7003;46.982;15.248;2024-02-15T08:19:00;2.13;;;1.77;;
13866;SDS011;7003;46.982;15.248;2024-02-15T08:21:34;3.30;;;1.70;;
13866;SDS011;7003;46.982;15.248;2024-02-15T08:24:05;2.20;;;1.50;;
13866;SDS011;7003;46.982;15.248;2024-02-15T08:26:36;3.40;;;1.87;;
13866;SDS011;7003;46.982;15.248;2024-02-15T08:29:11;3.30;;;2.27;;
13866;SDS011;7003;46.982;15.248;2024-02-15T08:31:46;3.20;;;2.23;;
13866;SDS011;7003;46.982;15.248;2024-02-15T08:34:21;3.50;;;2.20;;
13866;SDS011;7003;46.982;15.248;2024-02-15T08:36:54;3.43;;;2.23;;
13866;SDS011;7003;46.982;15.248;2024-02-15T08:39:28;1.60;;;1.50;;
13866;SDS011;7003;46.982;15.248;2024-02-15T08:42:01;3.07;;;1.70;;
13866;SDS011;7003;46.982;15.248;2024-02-15T08:44:37;2.83;;;1.97;;
13866;SDS011;7003;46.982;15.248;2024-02-15T08:47:06;1.58;;;1.48;;
13866;SDS011;7003;46.982;15.248;2024-02-15T08:49:39;2.25;;;1.60;;
13866;SDS011;7003;46.982;15.248;2024-02-15T08:52:09;1.52;;;1.42;;
13866;SDS011;7003;46.982;15.248;2024-02-15T08:54:39;3.60;;;1.10;;
13866;SDS011;7003;46.982;15.248;2024-02-15T08:57:11;2.83;;;1.52;;
13866;SDS011;7003;46.982;15.248;2024-02-15T08:59:39;6.30;;;1.40;;
13866;SDS011;7003;46.982;15.248;2024-02-15T09:02:12;1.58;;;1.27;;
13866;SDS011;7003;46.982;15.248;2024-02-15T09:04:49;3.83;;;1.75;;
13866;SDS011;7003;46.982;15.248;2024-02-15T09:07:22;2.45;;;1.38;;
13866;SDS011;7003;46.982;15.248;2024-02-15T09:09:53;1.35;;;1.23;;
13866;SDS011;7003;46.982;15.248;2024-02-15T09:12:23;3.83;;;1.35;;
13866;SDS011;7003;46.982;15.248;2024-02-15T09:14:53;3.05;;;1.15;;
13866;SDS011;7003;46.982;15.248;2024-02-15T09:17:24;2.90;;;1.38;;
13866;SDS011;7003;46.982;15.248;2024-02-15T09:19:56;1.70;;;1.35;;
13866;SDS011;7003;46.982;15.248;2024-02-15T09:22:27;1.38;;;1.27;;
13866;SDS011;7003;46.982;15.248;2024-02-15T09:24:57;1.80;;;1.35;;
13866;SDS011;7003;46.982;15.248;2024-02-15T09:27:28;1.80;;;1.23;;
13866;SDS011;7003;46.982;15.248;2024-02-15T09:29:58;1.80;;;1.33;;
13866;SDS011;7003;46.982;15.248;2024-02-15T09:32:35;3.80;;;1.73;;
13866;SDS011;7003;46.982;15.248;2024-02-15T09:35:10;2.65;;;1.67;;
13866;SDS011;7003;46.982;15.248;2024-02-15T09:37:43;2.25;;;2.05;;
13866;SDS011;7003;46.982;15.248;2024-02-15T09:40:16;2.45;;;2.13;;
13866;SDS011;7003;46.982;15.248;2024-02-15T09:42:47;4.22;;;1.85;;
13866;SDS011;7003;46.982;15.248;2024-02-15T09:45:18;1.85;;;1.73;;
13866;SDS011;7003;46.982;15.248;2024-02-15T09:47:52;2.70;;;2.03;;
13866;SDS011;7003;46.982;15.248;2024-02-15T09:50:26;1.30;;;1.20;;
13866;SDS011;7003;46.982;15.248;2024-02-15T09:53:00;3.05;;;2.08;;
13866;SDS011;7003;46.982;15.248;2024-02-15T09:55:34;3.78;;;1.67;;
13866;SDS011;7003;46.982;15.248;2024-02-15T09:58:05;5.65;;;2.10;;
13866;SDS011;7003;46.982;15.248;2024-02-15T10:00:40;2.03;;;1.83;;
13866;SDS011;7003;46.982;15.248;2024-02-15T10:03:12;2.42;;;2.22;;
13866;SDS011;7003;46.982;15.248;2024-02-15T10:05:49;3.20;;;2.28;;
13866;SDS011;7003;46.982;15.248;2024-02-15T10:08:19;3.53;;;2.58;;
13866;SDS011;7003;46.982;15.248;2024-02-15T10:11:05;2.53;;;2.10;;
13866;SDS011;7003;46.982;15.248;2024-02-15T10:13:39;6.47;;;2.42;;
13866;SDS011;7003;46.982;15.248;2024-02-15T10:16:14;1.75;;;1.42;;
13866;SDS011;7003;46.982;15.248;2024-02-15T10:18:45;8.35;;;2.20;;
13866;SDS011;7003;46.982;15.248;2024-02-15T10:21:27;3.95;;;1.60;;
13866;SDS011;7003;46.982;15.248;2024-02-15T10:24:04;2.22;;;1.75;;
13866;SDS011;7003;46.982;15.248;2024-02-15T10:26:34;5.20;;;1.65;;
13866;SDS011;7003;46.982;15.248;2024-02-15T10:29:05;2.53;;;1.63;;
13866;SDS011;7003;46.982;15.248;2024-02-15T10:31:39;2.40;;;2.08;;
13866;SDS011;7003;46.982;15.248;2024-02-15T10:34:09;2.05;;;1.77;;
13866;SDS011;7003;46.982;15.248;2024-02-15T10:36:48;2.15;;;1.67;;
13866;SDS011;7003;46.982;15.248;2024-02-15T10:39:20;1.60;;;1.50;;
13866;SDS011;7003;46.982;15.248;2024-02-15T10:41:52;2.65;;;1.77;;
13866;SDS011;7003;46.982;15.248;2024-02-15T10:44:24;2.55;;;1.63;;
13866;SDS011;7003;46.982;15.248;2024-02-15T10:46:54;3.95;;;1.35;;
13866;SDS011;7003;46.982;15.248;2024-02-15T10:49:26;2.45;;;1.55;;
13866;SDS011;7003;46.982;15.248;2024-02-15T10:52:01;1.73;;;1.48;;
13866;SDS011;7003;46.982;15.248;2024-02-15T10:54:40;1.35;;;1.25;;
13866;SDS011;7003;46.982;15.248;2024-02-15T10:57:13;2.55;;;1.30;;
13866;SDS011;7003;46.982;15.248;2024-02-15T10:59:54;1.52;;;1.33;;
13866;SDS011;7003;46.982;15.248;2024-02-15T11:02:30;1.77;;;1.67;;
13866;SDS011;7003;46.982;15.248;2024-02-15T11:05:03;1.52;;;1.33;;
13866;SDS011;7003;46.982;15.248;2024-02-15T11:07:42;1.98;;;1.20;;
13866;SDS011;7003;46.982;15.248;2024-02-15T11:10:12;1.90;;;1.65;;
13866;SDS011;7003;46.982;15.248;2024-02-15T11:12:43;2.90;;;2.17;;
13866;SDS011;7003;46.982;15.248;2024-02-15T11:15:20;6.38;;;2.20;;
13866;SDS011;7003;46.982;15.248;2024-02-15T11:18:11;3.35;;;1.85;;
13866;SDS011;7003;46.982;15.248;2024-02-15T11:20:51;10.60;;;2.42;;
13866;SDS011;7003;46.982;15.248;2024-02-15T11:23:27;2.55;;;2.25;;
13866;SDS011;7003;46.982;15.248;2024-02-15T11:26:00;1.65;;;1.55;;
13866;SDS011;7003;46.982;15.248;2024-02-15T11:28:43;2.05;;;1.65;;
13866;SDS011;7003;46.982;15.248;2024-02-15T11:34:42;5.00;;;2.33;;
13866;SDS011;7003;46.982;15.248;2024-02-15T11:40:25;7.63;;;1.70;;
13866;SDS011;7003;46.982;15.248;2024-02-15T11:42:57;1.90;;;1.52;;
13866;SDS011;7003;46.982;15.248;2024-02-15T11:45:38;2.70;;;1.58;;
13866;SDS011;7003;46.982;15.248;2024-02-15T11:48:13;2.05;;;1.50;;
13866;SDS011;7003;46.982;15.248;2024-02-15T11:50:43;2.60;;;1.73;;
13866;SDS011;7003;46.982;15.248;2024-02-15T11:53:15;2.50;;;1.42;;
13866;SDS011;7003;46.982;15.248;2024-02-15T11:55:48;4.95;;;1.98;;
13866;SDS011;7003;46.982;15.248;2024-02-15T11:58:29;6.95;;;1.52;;
13866;SDS011;7003;46.982;15.248;2024-02-15T12:01:11;1.77;;;1.30;;
13866;SDS011;7003;46.982;15.248;2024-02-15T12:04:09;2.72;;;1.50;;
13866;SDS011;7003;46.982;15.248;2024-02-15T12:06:58;1.15;;;1.00;;
13866;SDS011;7003;46.982;15.248;2024-02-15T12:09:46;6.15;;;2.00;;
13866;SDS011;7003;46.982;15.248;2024-02-15T12:12:37;3.60;;;1.42;;
13866;SDS011;7003;46.982;15.248;2024-02-15T12:15:36;1.50;;;1.40;;
13866;SDS011;7003;46.982;15.248;2024-02-15T12:18:25;2.08;;;1.25;;
13866;SDS011;7003;46.982;15.248;2024-02-15T12:21:22;3.28;;;1.35;;
13866;SDS011;7003;46.982;15.248;2024-02-15T12:23:54;1.35;;;1.25;;
13866;SDS011;7003;46.982;15.248;2024-02-15T12:26:28;2.25;;;1.80;;
13866;SDS011;7003;46.982;15.248;2024-02-15T12:29:02;4.10;;;1.38;;
13866;SDS011;7003;46.982;15.248;2024-02-15T12:31:35;4.63;;;1.27;;
13866;SDS011;7003;46.982;15.248;2024-02-15T12:34:10;3.75;;;1.50;;
13866;SDS011;7003;46.982;15.248;2024-02-15T12:36:43;1.92;;;1.50;;
13866;SDS011;7003;46.982;15.248;2024-02-15T12:39:15;2.65;;;1.70;;
13866;SDS011;7003;46.982;15.248;2024-02-15T12:41:56;5.78;;;1.58;;
13866;SDS011;7003;46.982;15.248;2024-02-15T12:44:30;1.67;;;1.58;;
13866;SDS011;7003;46.982;15.248;2024-02-15T12:47:05;1.73;;;1.42;;
13866;SDS011;7003;46.982;15.248;2024-02-15T12:49:38;2.55;;;1.73;;
13866;SDS011;7003;46.982;15.248;2024-02-15T12:55:11;1.67;;;1.58;;
13866;SDS011;7003;46.982;15.248;2024-02-15T12:57:47;1.85;;;1.70;;
13866;SDS011;7003;46.982;15.248;2024-02-15T13:00:22;2.10;;;1.40;;
13866;SDS011;7003;46.982;15.248;2024-02-15T13:02:55;1.38;;;1.27;;
13866;SDS011;7003;46.982;15.248;2024-02-15T13:05:30;1.85;;;1.17;;
13866;SDS011;7003;46.982;15.248;2024-02-15T13:08:02;3.28;;;1.50;;
13866;SDS011;7003;46.982;15.248;2024-02-15T13:10:39;1.35;;;1.25;;
13866;SDS011;7003;46.982;15.248;2024-02-15T13:13:09;5.07;;;1.30;;
13866;SDS011;7003;46.982;15.248;2024-02-15T13:15:46;1.60;;;1.20;;
13866;SDS011;7003;46.982;15.248;2024-02-15T13:18:18;2.55;;;1.50;;
13866;SDS011;7003;46.982;15.248;2024-02-15T13:20:49;2.25;;;2.08;;
13866;SDS011;7003;46.982;15.248;2024-02-15T13:23:29;3.05;;;1.77;;
13866;SDS011;7003;46.982;15.248;2024-02-15T13:26:03;3.22;;;1.70;;
13866;SDS011;7003;46.982;15.248;2024-02-15T13:28:35;4.78;;;1.90;;
13866;SDS011;7003;46.982;15.248;2024-02-15T13:31:07;2.53;;;1.08;;
13866;SDS011;7003;46.982;15.248;2024-02-15T13:33:50;1.25;;;1.00;;
13866;SDS011;7003;46.982;15.248;2024-02-15T13:36:22;1.30;;;1.20;;
13866;SDS011;7003;46.982;15.248;2024-02-15T13:38:53;1.88;;;1.00;;
13866;SDS011;7003;46.982;15.248;2024-02-15T13:41:24;1.60;;;1.42;;
13866;SDS011;7003;46.982;15.248;2024-02-15T13:43:55;5.00;;;2.05;;
13866;SDS011;7003;46.982;15.248;2024-02-15T13:46:27;1.77;;;1.20;;
13866;SDS011;7003;46.982;15.248;2024-02-15T13:48:57;2.22;;;1.73;;
13866;SDS011;7003;46.982;15.248;2024-02-15T13:51:29;2.03;;;1.63;;
13866;SDS011;7003;46.982;15.248;2024-02-15T13:54:01;5.65;;;1.45;;
13866;SDS011;7003;46.982;15.248;2024-02-15T13:56:35;2.90;;;1.45;;
13866;SDS011;7003;46.982;15.248;2024-02-15T13:59:07;5.05;;;1.50;;
13866;SDS011;7003;46.982;15.248;2024-02-15T14:01:42;1.17;;;0.98;;
13866;SDS011;7003;46.982;15.248;2024-02-15T14:04:12;1.30;;;1.05;;
13866;SDS011;7003;46.982;15.248;2024-02-15T14:06:42;1.33;;;1.23;;
13866;SDS011;7003;46.982;15.248;2024-02-15T14:09:14;0.93;;;0.88;;
13866;SDS011;7003;46.982;15.248;2024-02-15T14:11:45;1.15;;;1.05;;
13866;SDS011;7003;46.982;15.248;2024-02-15T14:14:15;3.67;;;1.63;;
13866;SDS011;7003;46.982;15.248;2024-02-15T14:16:47;2.25;;;1.45;;
13866;SDS011;7003;46.982;15.248;2024-02-15T14:19:17;1.20;;;0.98;;
13866;SDS011;7003;46.982;15.248;2024-02-15T14:21:47;4.07;;;1.42;;
13866;SDS011;7003;46.982;15.248;2024-02-15T14:24:21;1.42;;;1.20;;
13866;SDS011;7003;46.982;15.248;2024-02-15T14:26:55;3.03;;;2.13;;
13866;SDS011;7003;46.982;15.248;2024-02-15T14:29:31;2.78;;;1.27;;
13866;SDS011;7003;46.982;15.248;2024-02-15T14:32:35;3.33;;;1.73;;
13866;SDS011;7003;46.982;15.248;2024-02-15T14:35:28;5.90;;;1.45;;
13866;SDS011;7003;46.982;15.248;2024-02-15T14:38:08;1.88;;;1.20;;
13866;SDS011;7003;46.982;15.248;2024-02-15T14:40:48;6.63;;;1.33;;
13866;SDS011;7003;46.982;15.248;2024-02-15T14:43:26;1.92;;;1.42;;
13866;SDS011;7003;46.982;15.248;2024-02-15T14:45:56;2.53;;;1.58;;
13866;SDS011;7003;46.982;15.248;2024-02-15T14:48:36;4.03;;;1.52;;
13866;SDS011;7003;46.982;15.248;2024-02-15T14:51:15;6.32;;;1.60;;
13866;SDS011;7003;46.982;15.248;2024-02-15T14:53:47;6.60;;;2.60;;
13866;SDS011;7003;46.982;15.248;2024-02-15T14:56:17;1.60;;;0.95;;
13866;SDS011;7003;46.982;15.248;2024-02-15T14:58:49;6.20;;;1.48;;
13866;SDS011;7003;46.982;15.248;2024-02-15T15:01:19;1.98;;;1.88;;
13866;SDS011;7003;46.982;15.248;2024-02-15T15:03:55;3.42;;;1.88;;
13866;SDS011;7003;46.982;15.248;2024-02-15T15:06:30;2.65;;;2.45;;
13866;SDS011;7003;46.982;15.248;2024-02-15T15:09:17;4.30;;;2.33;;
13866;SDS011;7003;46.982;15.248;2024-02-15T15:12:04;3.35;;;1.90;;
13866;SDS011;7003;46.982;15.248;2024-02-15T15:14:51;3.05;;;2.00;;
13866;SDS011;7003;46.982;15.248;2024-02-15T15:17:22;2.55;;;1.70;;
13866;SDS011;7003;46.982;15.248;2024-02-15T15:20:00;3.25;;;1.77;;
13866;SDS011;7003;46.982;15.248;2024-02-15T15:22:35;1.77;;;1.48;;
13866;SDS011;7003;46.982;15.248;2024-02-15T15:25:06;1.55;;;1.42;;
13866;SDS011;7003;46.982;15.248;2024-02-15T15:27:40;4.38;;;2.08;;